createdAt,value
2019-05-11T00:00:08.222Z,11.16
2019-05-11T00:02:38.634Z,11.17
2019-05-11T00:05:09.710Z,11.23
2019-05-11T00:07:40.690Z,11.19
2019-05-11T00:10:11.894Z,11.28
2019-05-11T00:12:42.634Z,11.16
2019-05-11T00:15:13.711Z,11.13
2019-05-11T00:17:44.106Z,11.06
2019-05-11T00:20:14.773Z,10.98
2019-05-11T00:22:45.568Z,10.92
2019-05-11T00:25:16.424Z,10.86
2019-05-11T00:27:47.336Z,10.85
2019-05-11T00:30:18.186Z,10.83
2019-05-11T00:32:48.642Z,10.76
2019-05-11T00:35:19.445Z,10.89
2019-05-11T00:37:50.641Z,10.88
2019-05-11T00:40:21.216Z,10.86
2019-05-11T00:42:51.978Z,10.77
2019-05-11T00:45:22.686Z,10.70
2019-05-11T00:47:53.537Z,10.84
2019-05-11T00:50:38.087Z,10.80
2019-05-11T00:52:57.974Z,10.82
2019-05-11T00:55:28.399Z,10.80
2019-05-11T00:57:59.234Z,10.79
2019-05-11T01:00:30.048Z,10.78
2019-05-11T01:03:00.810Z,10.76
2019-05-11T01:05:31.694Z,10.74
2019-05-11T01:08:02.453Z,10.77
2019-05-11T01:10:41.587Z,10.65
2019-05-11T01:13:05.694Z,10.70
2019-05-11T01:15:36.147Z,10.75
2019-05-11T01:18:06.931Z,10.68
2019-05-11T01:20:37.694Z,10.59
2019-05-11T01:23:08.520Z,10.44
2019-05-11T01:25:39.359Z,10.52
2019-05-11T01:28:10.198Z,10.35
2019-05-11T01:30:40.625Z,10.32
2019-05-11T01:33:11.452Z,10.26
2019-05-11T01:35:42.323Z,10.28
2019-05-11T01:38:13.111Z,10.20
2019-05-11T01:40:57.764Z,10.30
2019-05-11T01:43:15.921Z,10.20
2019-05-11T01:45:46.774Z,10.10
2019-05-11T01:48:17.482Z,10.22
2019-05-11T01:50:48.334Z,10.25
2019-05-11T01:53:19.166Z,10.15
2019-05-11T01:55:49.907Z,10.28
2019-05-11T01:58:20.726Z,10.29
2019-05-11T02:00:51.575Z,10.36
2019-05-11T02:03:22.322Z,10.33
2019-05-11T02:05:52.746Z,10.40
2019-05-11T02:08:23.177Z,10.37
2019-05-11T02:10:53.940Z,10.42
2019-05-11T02:13:24.852Z,10.39
2019-05-11T02:15:55.569Z,10.40
2019-05-11T02:18:26.386Z,10.38
2019-05-11T02:20:56.856Z,10.40
2019-05-11T02:23:27.266Z,10.37
2019-05-11T02:25:57.728Z,10.36
2019-05-11T02:28:28.418Z,10.33
2019-05-11T02:30:59.262Z,10.30
2019-05-11T02:33:29.773Z,10.31
2019-05-11T02:36:00.622Z,10.28
2019-05-11T02:38:31.460Z,10.32
2019-05-11T02:41:01.915Z,10.26
2019-05-11T02:43:32.809Z,10.21
2019-05-11T02:46:03.563Z,10.25
2019-05-11T02:48:34.293Z,10.25
2019-05-11T02:51:05.122Z,10.15
2019-05-11T02:53:36.059Z,10.16
2019-05-11T02:56:06.809Z,10.06
2019-05-11T02:58:37.646Z,10.13
2019-05-11T03:01:08.369Z,10.12
2019-05-11T03:03:39.109Z,10.12
2019-05-11T03:06:09.571Z,10.20
2019-05-11T03:08:40.213Z,10.18
2019-05-11T03:11:10.917Z,10.22
2019-05-11T03:13:41.739Z,10.22
2019-05-11T03:16:12.620Z,10.11
2019-05-11T03:18:43.423Z,10.17
2019-05-11T03:21:13.992Z,10.16
2019-05-11T03:23:44.791Z,10.22
2019-05-11T03:26:15.529Z,10.16
2019-05-11T03:28:46.351Z,10.14
2019-05-11T03:31:16.929Z,10.12
2019-05-11T03:33:47.824Z,10.24
2019-05-11T03:36:18.655Z,10.18
2019-05-11T03:38:49.379Z,10.14
2019-05-11T03:41:20.230Z,10.12
2019-05-11T03:43:50.971Z,10.18
2019-05-11T03:46:21.694Z,10.18
2019-05-11T03:48:52.517Z,10.18
2019-05-11T03:51:23.363Z,10.26
2019-05-11T03:53:54.201Z,10.21
2019-05-11T03:56:25.147Z,10.30
2019-05-11T03:58:55.997Z,10.33
2019-05-11T04:01:26.916Z,10.40
2019-05-11T04:03:57.750Z,10.39
2019-05-11T04:06:28.677Z,10.41
2019-05-11T04:08:59.070Z,10.42
2019-05-11T04:11:29.967Z,10.50
2019-05-11T04:14:00.689Z,10.42
2019-05-11T04:16:31.623Z,10.41
2019-05-11T04:19:02.068Z,10.42
2019-05-11T04:21:32.922Z,10.58
2019-05-11T04:24:03.784Z,10.56
2019-05-11T04:26:36.340Z,10.52
2019-05-11T04:29:06.936Z,10.60
2019-05-11T04:31:37.889Z,10.58
2019-05-11T04:34:08.849Z,10.62
2019-05-11T04:36:39.698Z,10.73
2019-05-11T04:39:10.509Z,10.77
2019-05-11T04:41:40.975Z,10.82
2019-05-11T04:44:12.102Z,10.82
2019-05-11T04:46:43.138Z,10.84
2019-05-11T04:49:15.388Z,10.79
2019-05-11T04:51:48.075Z,10.73
2019-05-11T04:54:18.930Z,10.78
2019-05-11T04:56:49.861Z,10.78
2019-05-11T04:59:22.480Z,10.80
2019-05-11T05:01:53.245Z,10.88
2019-05-11T05:04:23.975Z,10.86
2019-05-11T05:06:59.795Z,10.97
2019-05-11T05:09:27.397Z,11.02
2019-05-11T05:11:58.243Z,11.00
2019-05-11T05:14:28.959Z,11.00
2019-05-11T05:16:59.699Z,11.09
2019-05-11T05:19:30.467Z,11.18
2019-05-11T05:22:01.277Z,11.24
2019-05-11T05:24:32.017Z,11.29
2019-05-11T05:27:02.418Z,11.34
2019-05-11T05:29:33.275Z,11.47
2019-05-11T05:32:04.007Z,11.56
2019-05-11T05:34:34.851Z,11.62
2019-05-11T05:37:05.781Z,11.67
2019-05-11T05:39:36.196Z,11.73
2019-05-11T05:42:06.974Z,11.76
2019-05-11T05:44:37.879Z,11.71
2019-05-11T05:47:08.613Z,11.81
2019-05-11T05:49:39.451Z,11.88
2019-05-11T05:52:10.465Z,11.80
2019-05-11T05:54:41.229Z,11.94
2019-05-11T05:57:12.165Z,11.85
2019-05-11T05:59:42.898Z,11.99
2019-05-11T06:02:13.734Z,12.10
2019-05-11T06:04:44.469Z,12.08
2019-05-11T06:07:15.227Z,12.33
2019-05-11T06:09:46.137Z,12.43
2019-05-11T06:12:16.975Z,12.34
2019-05-11T06:14:47.704Z,12.46
2019-05-11T06:17:18.441Z,12.57
2019-05-11T06:19:49.393Z,12.74
2019-05-11T06:22:20.728Z,12.76
2019-05-11T06:24:51.566Z,12.60
2019-05-11T06:27:22.307Z,12.58
2019-05-11T06:29:53.133Z,12.58
2019-05-11T06:32:23.963Z,12.62
2019-05-11T06:34:54.704Z,12.64
2019-05-11T06:37:25.438Z,12.61
2019-05-11T06:39:56.179Z,12.76
2019-05-11T06:42:26.892Z,12.68
2019-05-11T06:44:57.573Z,12.64
2019-05-11T06:47:28.501Z,12.68
2019-05-11T06:49:59.592Z,12.66
2019-05-11T06:52:30.363Z,12.64
2019-05-11T06:55:00.766Z,12.60
2019-05-11T06:57:31.630Z,12.52
2019-05-11T07:00:02.823Z,12.68
2019-05-11T07:02:33.601Z,12.67
2019-05-11T07:05:06.063Z,12.75
2019-05-11T07:07:46.920Z,12.82
2019-05-11T07:10:10.250Z,12.88
2019-05-11T07:12:41.155Z,13.03
2019-05-11T07:15:12.792Z,12.95
2019-05-11T07:17:43.799Z,12.94
2019-05-11T07:20:14.711Z,12.94
2019-05-11T07:22:45.508Z,13.03
2019-05-11T07:25:16.412Z,13.18
2019-05-11T07:27:47.319Z,13.06
2019-05-11T07:30:18.399Z,13.07
2019-05-11T07:32:49.167Z,13.13
2019-05-11T07:35:20.040Z,13.26
2019-05-11T07:37:50.834Z,13.17
2019-05-11T07:40:21.825Z,13.22
2019-05-11T07:42:52.872Z,13.20
2019-05-11T07:45:23.895Z,13.02
2019-05-11T07:47:54.393Z,13.03
2019-05-11T07:50:25.150Z,13.12
2019-05-11T07:52:56.108Z,13.13
2019-05-11T07:55:29.304Z,13.06
2019-05-11T07:58:00.121Z,13.22
2019-05-11T08:00:31.100Z,13.14
2019-05-11T08:03:01.638Z,13.08
2019-05-11T08:05:32.430Z,13.21
2019-05-11T08:08:03.316Z,13.18
2019-05-11T08:10:33.920Z,13.30
2019-05-11T08:13:04.774Z,13.26
2019-05-11T08:15:38.078Z,13.38
2019-05-11T08:18:08.678Z,13.43
2019-05-11T08:20:39.585Z,13.50
2019-05-11T08:23:10.152Z,13.55
2019-05-11T08:25:40.952Z,13.60
2019-05-11T08:28:12.272Z,13.58
2019-05-11T08:30:42.848Z,13.66
2019-05-11T08:33:13.766Z,13.66
2019-05-11T08:35:44.543Z,13.80
2019-05-11T08:38:15.234Z,13.57
2019-05-11T08:40:48.517Z,13.79
2019-05-11T08:43:19.562Z,13.83
2019-05-11T08:45:49.971Z,13.70
2019-05-11T08:48:20.827Z,13.66
2019-05-11T08:50:51.687Z,13.76
2019-05-11T08:53:22.498Z,13.84
2019-05-11T08:55:53.264Z,13.84
2019-05-11T08:58:24.083Z,13.99
2019-05-11T09:00:54.923Z,13.82
2019-05-11T09:03:28.157Z,14.00
2019-05-11T09:05:58.236Z,13.96
2019-05-11T09:08:29.077Z,14.08
2019-05-11T09:10:59.886Z,14.24
2019-05-11T09:13:30.748Z,14.28
2019-05-11T09:16:01.818Z,14.36
2019-05-11T09:18:38.762Z,14.38
2019-05-11T09:21:09.719Z,14.44
2019-05-11T09:23:40.888Z,14.36
2019-05-11T09:26:12.129Z,14.39
2019-05-11T09:28:43.049Z,14.54
2019-05-11T09:31:14.179Z,14.82
2019-05-11T09:33:45.041Z,14.89
2019-05-11T09:36:18.073Z,15.23
2019-05-11T09:38:49.156Z,15.39
2019-05-11T09:41:20.212Z,15.52
2019-05-11T09:43:51.022Z,15.54
2019-05-11T09:46:21.762Z,15.68
2019-05-11T09:48:52.600Z,15.65
2019-05-11T09:51:23.910Z,15.94
2019-05-11T09:53:54.764Z,15.93
2019-05-11T09:56:25.624Z,16.07
2019-05-11T09:58:58.169Z,15.83
2019-05-11T10:01:29.624Z,16.20
2019-05-11T10:04:00.670Z,16.08
2019-05-11T10:06:32.276Z,16.11
2019-05-11T10:09:03.076Z,16.31
2019-05-11T10:11:33.807Z,16.33
2019-05-11T10:14:04.639Z,16.08
2019-05-11T10:16:35.483Z,16.07
2019-05-11T10:19:08.541Z,16.21
2019-05-11T10:21:39.705Z,15.96
2019-05-11T10:24:10.628Z,16.32
2019-05-11T10:26:41.394Z,16.06
2019-05-11T10:29:12.422Z,16.18
2019-05-11T10:31:43.152Z,16.10
2019-05-11T10:34:13.907Z,16.30
2019-05-11T10:36:44.723Z,16.24
2019-05-11T10:39:15.546Z,16.01
2019-05-11T10:41:47.981Z,16.18
2019-05-11T10:44:22.104Z,15.96
2019-05-11T10:46:52.914Z,16.37
2019-05-11T10:49:28.645Z,16.19
2019-05-11T10:51:58.893Z,16.30
2019-05-11T10:54:31.641Z,16.44
2019-05-11T10:57:03.131Z,16.40
2019-05-11T10:59:34.203Z,16.44
2019-05-11T11:02:07.805Z,16.58
2019-05-11T11:04:38.268Z,16.74
2019-05-11T11:07:10.329Z,16.68
2019-05-11T11:09:41.695Z,16.58
2019-05-11T11:12:12.576Z,16.54
2019-05-11T11:14:43.346Z,16.51
2019-05-11T11:17:14.218Z,16.32
2019-05-11T11:19:48.773Z,16.26
2019-05-11T11:22:35.765Z,16.40
2019-05-11T11:24:53.775Z,16.54
2019-05-11T11:27:26.159Z,16.56
2019-05-11T11:29:58.553Z,16.35
2019-05-11T11:32:29.671Z,16.58
2019-05-11T11:35:00.549Z,16.31
2019-05-11T11:37:31.457Z,16.30
2019-05-11T11:40:02.305Z,16.12
2019-05-11T11:42:33.181Z,16.03
2019-05-11T11:45:09.023Z,16.17
2019-05-11T11:47:40.020Z,16.27
2019-05-11T11:50:11.174Z,16.33
2019-05-11T11:52:44.996Z,16.36
2019-05-11T11:55:14.763Z,16.55
2019-05-11T11:57:45.151Z,16.56
2019-05-11T12:00:18.294Z,16.33
2019-05-11T12:02:49.014Z,16.35
2019-05-11T12:05:19.746Z,16.39
2019-05-11T12:07:50.197Z,16.45
2019-05-11T12:10:21.217Z,16.51
2019-05-11T12:12:52.508Z,16.37
2019-05-11T12:15:22.911Z,16.30
2019-05-11T12:17:53.747Z,16.30
2019-05-11T12:20:24.240Z,16.04
2019-05-11T12:22:54.985Z,16.30
2019-05-11T12:25:27.777Z,16.02
2019-05-11T12:27:58.011Z,15.78
2019-05-11T12:30:28.868Z,15.98
2019-05-11T12:32:59.693Z,15.78
2019-05-11T12:35:30.485Z,15.65
2019-05-11T12:38:03.108Z,15.62
2019-05-11T12:40:38.669Z,15.74
2019-05-11T12:43:08.689Z,15.56
2019-05-11T12:45:39.597Z,15.70
2019-05-11T12:48:10.193Z,15.68
2019-05-11T12:50:41.073Z,15.48
2019-05-11T12:53:11.581Z,15.54
2019-05-11T12:55:42.641Z,15.36
2019-05-11T12:58:13.478Z,15.40
2019-05-11T13:00:44.433Z,15.45
2019-05-11T13:03:15.365Z,15.54
2019-05-11T13:05:48.254Z,15.60
2019-05-11T13:08:18.873Z,15.53
2019-05-11T13:10:49.759Z,15.81
2019-05-11T13:13:20.409Z,15.76
2019-05-11T13:15:51.399Z,15.76
2019-05-11T13:18:23.628Z,15.74
2019-05-11T13:20:54.517Z,15.84
2019-05-11T13:23:27.804Z,15.80
2019-05-11T13:25:58.668Z,15.99
2019-05-11T13:28:29.660Z,15.94
2019-05-11T13:31:00.596Z,15.76
2019-05-11T13:33:31.697Z,16.02
2019-05-11T13:36:05.686Z,15.81
2019-05-11T13:38:38.636Z,15.72
2019-05-11T13:41:09.190Z,15.90
2019-05-11T13:43:44.801Z,15.64
2019-05-11T13:46:17.947Z,15.58
2019-05-11T13:48:50.603Z,15.53
2019-05-11T13:51:21.539Z,15.76
2019-05-11T13:53:52.545Z,15.62
2019-05-11T13:56:23.442Z,15.56
2019-05-11T13:58:57.837Z,15.48
2019-05-11T14:01:28.440Z,15.49
2019-05-11T14:03:59.172Z,15.38
2019-05-11T14:06:30.040Z,15.33
2019-05-11T14:09:02.391Z,15.10
2019-05-11T14:11:33.358Z,15.22
2019-05-11T14:14:05.065Z,15.31
2019-05-11T14:16:37.796Z,15.40
2019-05-11T14:19:08.780Z,15.44
2019-05-11T14:21:41.022Z,15.41
2019-05-11T14:24:13.518Z,15.48
2019-05-11T14:26:45.090Z,15.32
2019-05-11T14:29:17.787Z,15.24
2019-05-11T14:31:48.986Z,15.32
2019-05-11T14:34:20.088Z,15.12
2019-05-11T14:36:50.931Z,14.99
2019-05-11T14:39:21.848Z,14.88
2019-05-11T14:41:54.118Z,14.72
2019-05-11T14:44:24.951Z,14.63
2019-05-11T14:46:55.686Z,14.66
2019-05-11T14:49:27.637Z,14.69
2019-05-11T14:51:58.746Z,14.68
2019-05-11T14:54:31.010Z,14.68
2019-05-11T14:57:01.910Z,14.69
2019-05-11T14:59:32.682Z,14.66
2019-05-11T15:02:05.115Z,14.61
2019-05-11T15:04:37.891Z,14.62
2019-05-11T15:07:08.634Z,14.44
2019-05-11T15:09:39.470Z,14.48
2019-05-11T15:12:10.230Z,14.31
2019-05-11T15:14:40.670Z,14.29
2019-05-11T15:17:11.454Z,14.30
2019-05-11T15:19:42.306Z,14.32
2019-05-11T15:22:12.798Z,14.18
2019-05-11T15:24:43.338Z,14.06
2019-05-11T15:27:14.198Z,14.02
2019-05-11T15:29:45.114Z,13.85
2019-05-11T15:32:17.799Z,13.72
2019-05-11T15:34:48.736Z,13.60
2019-05-11T15:37:19.676Z,13.60
2019-05-11T15:39:52.295Z,13.54
2019-05-11T15:42:23.116Z,13.37
2019-05-11T15:44:53.592Z,13.29
2019-05-11T15:47:24.470Z,13.12
2019-05-11T15:49:57.770Z,13.41
2019-05-11T15:52:27.825Z,13.28
2019-05-11T15:54:58.722Z,13.11
2019-05-11T15:57:29.463Z,12.94
2019-05-11T16:00:00.196Z,12.79
2019-05-11T16:02:30.934Z,12.71
2019-05-11T16:05:01.980Z,12.58
2019-05-11T16:07:32.708Z,12.56
2019-05-11T16:10:04.863Z,12.52
2019-05-11T16:12:38.847Z,12.45
2019-05-11T16:15:10.013Z,12.33
2019-05-11T16:17:40.858Z,12.26
2019-05-11T16:20:13.004Z,12.24
2019-05-11T16:22:43.920Z,12.26
2019-05-11T16:25:15.200Z,12.18
2019-05-11T16:27:46.105Z,12.07
2019-05-11T16:30:20.834Z,12.07
2019-05-11T16:32:49.599Z,12.11
2019-05-11T16:35:20.796Z,12.11
2019-05-11T16:37:51.764Z,12.13
2019-05-11T16:40:22.544Z,12.20
2019-05-11T16:42:56.162Z,12.24
2019-05-11T16:45:28.141Z,12.36
2019-05-11T16:47:59.017Z,12.47
2019-05-11T16:50:30.058Z,12.42
2019-05-11T16:53:00.872Z,12.50
2019-05-11T16:55:31.386Z,12.63
2019-05-11T16:58:02.267Z,12.66
2019-05-11T17:00:41.925Z,12.84
2019-05-11T17:03:10.786Z,12.72
2019-05-11T17:05:41.540Z,12.73
2019-05-11T17:08:12.479Z,12.80
2019-05-11T17:10:44.990Z,12.74
2019-05-11T17:13:18.044Z,12.84
2019-05-11T17:15:48.975Z,12.88
2019-05-11T17:18:19.798Z,12.93
2019-05-11T17:20:50.358Z,13.03
2019-05-11T17:23:21.181Z,13.12
2019-05-11T17:25:52.098Z,12.97
2019-05-11T17:28:25.285Z,12.96
2019-05-11T17:30:58.656Z,13.03
2019-05-11T17:33:28.828Z,12.97
2019-05-11T17:35:59.396Z,13.04
2019-05-11T17:38:30.293Z,13.10
2019-05-11T17:41:01.237Z,13.09
2019-05-11T17:43:32.082Z,12.96
2019-05-11T17:46:04.340Z,13.12
2019-05-11T17:48:35.184Z,13.17
2019-05-11T17:51:18.429Z,13.19
2019-05-11T17:53:38.812Z,12.93
2019-05-11T17:56:09.391Z,12.81
2019-05-11T17:58:39.826Z,13.06
2019-05-11T18:01:10.593Z,12.80
2019-05-11T18:03:41.438Z,12.75
2019-05-11T18:06:12.312Z,12.74
2019-05-11T18:08:43.112Z,12.60
2019-05-11T18:11:13.929Z,12.60
2019-05-11T18:13:44.844Z,12.62
2019-05-11T18:16:15.614Z,12.55
2019-05-11T18:18:48.330Z,12.52
2019-05-11T18:21:19.069Z,12.44
2019-05-11T18:23:50.058Z,12.54
2019-05-11T18:26:20.997Z,12.33
2019-05-11T18:28:51.472Z,12.38
2019-05-11T18:31:22.443Z,12.38
2019-05-11T18:33:53.339Z,12.43
2019-05-11T18:36:24.238Z,12.41
2019-05-11T18:38:54.967Z,12.26
2019-05-11T18:41:28.146Z,12.32
2019-05-11T18:43:58.595Z,12.25
2019-05-11T18:46:30.170Z,12.29
2019-05-11T18:49:00.980Z,12.26
2019-05-11T18:51:33.570Z,12.32
2019-05-11T18:54:04.675Z,12.24
2019-05-11T18:56:35.446Z,12.29
2019-05-11T18:59:08.612Z,12.20
2019-05-11T19:01:38.852Z,12.14
2019-05-11T19:04:09.777Z,12.22
2019-05-11T19:06:40.289Z,12.21
2019-05-11T19:09:11.153Z,12.20
2019-05-11T19:11:42.790Z,12.14
2019-05-11T19:14:14.113Z,12.16
2019-05-11T19:16:44.871Z,12.20
2019-05-11T19:19:18.125Z,12.22
2019-05-11T19:21:48.375Z,12.32
2019-05-11T19:24:19.237Z,12.26
2019-05-11T19:26:51.400Z,12.22
2019-05-11T19:29:22.481Z,12.24
2019-05-11T19:31:53.999Z,12.24
2019-05-11T19:34:24.841Z,12.20
2019-05-11T19:36:57.811Z,12.18
2019-05-11T19:39:28.151Z,12.18
2019-05-11T19:41:59.017Z,12.22
2019-05-11T19:44:29.507Z,12.14
2019-05-11T19:47:04.893Z,12.21
2019-05-11T19:49:35.801Z,12.08
2019-05-11T19:52:08.538Z,12.12
2019-05-11T19:54:38.628Z,12.21
2019-05-11T19:57:09.453Z,12.14
2019-05-11T19:59:40.285Z,12.20
2019-05-11T20:02:10.797Z,12.16
2019-05-11T20:04:41.725Z,12.18
2019-05-11T20:07:12.459Z,12.08
2019-05-11T20:09:43.296Z,12.14
2019-05-11T20:12:14.034Z,12.06
2019-05-11T20:14:44.911Z,12.10
2019-05-11T20:17:15.348Z,12.05
2019-05-11T20:19:46.221Z,11.90
2019-05-11T20:22:16.972Z,11.96
2019-05-11T20:24:47.931Z,11.88
2019-05-11T20:27:18.773Z,11.90
2019-05-11T20:29:49.353Z,11.72
2019-05-11T20:32:20.296Z,11.74
2019-05-11T20:34:50.931Z,11.79
2019-05-11T20:37:21.718Z,11.57
2019-05-11T20:39:52.566Z,11.78
2019-05-11T20:42:23.429Z,11.70
2019-05-11T20:44:54.225Z,11.60
2019-05-11T20:47:25.405Z,11.64
2019-05-11T20:49:58.599Z,11.54
2019-05-11T20:52:28.494Z,11.54
2019-05-11T20:54:59.397Z,11.64
2019-05-11T20:57:30.241Z,11.63
2019-05-11T21:00:01.174Z,11.61
2019-05-11T21:02:32.014Z,11.54
2019-05-11T21:05:02.845Z,11.51
2019-05-11T21:07:33.719Z,11.46
2019-05-11T21:10:08.348Z,11.53
2019-05-11T21:12:38.932Z,11.45
2019-05-11T21:15:10.798Z,11.40
2019-05-11T21:17:41.697Z,11.43
2019-05-11T21:20:12.566Z,11.49
2019-05-11T21:22:43.453Z,11.45
2019-05-11T21:25:14.490Z,11.48
2019-05-11T21:27:45.288Z,11.50
2019-05-11T21:30:18.464Z,11.36
2019-05-11T21:32:49.393Z,11.44
2019-05-11T21:35:20.151Z,11.38
2019-05-11T21:37:50.988Z,11.37
2019-05-11T21:40:21.738Z,11.32
2019-05-11T21:42:54.298Z,11.36
2019-05-11T21:45:25.039Z,11.40
2019-05-11T21:48:00.683Z,11.37
2019-05-11T21:50:31.579Z,11.48
2019-05-11T21:53:02.459Z,11.40
2019-05-11T21:55:33.289Z,11.42
2019-05-11T21:58:04.128Z,11.27
2019-05-11T22:00:35.313Z,11.40
2019-05-11T22:03:09.994Z,11.47
2019-05-11T22:05:38.894Z,11.34
2019-05-11T22:08:09.652Z,11.31
2019-05-11T22:10:40.479Z,11.25
2019-05-11T22:13:11.333Z,11.30
2019-05-11T22:15:41.806Z,11.18
2019-05-11T22:18:27.513Z,11.17
2019-05-11T22:20:45.144Z,11.14
2019-05-11T22:23:17.647Z,11.14
2019-05-11T22:25:50.640Z,11.11
2019-05-11T22:28:21.050Z,11.06
2019-05-11T22:30:51.964Z,10.94
2019-05-11T22:33:22.794Z,11.03
2019-05-11T22:35:53.654Z,11.04
2019-05-11T22:38:24.538Z,10.93
2019-05-11T22:40:55.343Z,11.13
2019-05-11T22:43:28.349Z,11.10
2019-05-11T22:45:58.722Z,11.00
2019-05-11T22:48:29.589Z,11.02
2019-05-11T22:51:00.187Z,11.08
2019-05-11T22:53:43.839Z,10.97
2019-05-11T22:56:03.714Z,10.97
2019-05-11T22:58:34.545Z,11.23
2019-05-11T23:01:05.386Z,11.00
2019-05-11T23:03:38.267Z,10.90
2019-05-11T23:06:08.743Z,10.91
2019-05-11T23:08:39.547Z,10.80
2019-05-11T23:11:10.603Z,10.82
2019-05-11T23:13:41.636Z,10.74
2019-05-11T23:16:12.462Z,10.93
2019-05-11T23:18:43.200Z,10.70
2019-05-11T23:21:13.560Z,10.69
2019-05-11T23:23:44.377Z,10.72
2019-05-11T23:26:15.082Z,10.58
2019-05-11T23:28:45.826Z,10.80
2019-05-11T23:31:16.644Z,10.68
2019-05-11T23:33:47.514Z,10.74
2019-05-11T23:36:18.467Z,10.70
2019-05-11T23:38:49.286Z,10.65
2019-05-11T23:41:24.769Z,10.66
2019-05-11T23:43:52.471Z,10.71
2019-05-11T23:46:23.368Z,10.58
2019-05-11T23:48:54.070Z,10.37
2019-05-11T23:51:24.792Z,10.48
2019-05-11T23:53:55.531Z,10.44
2019-05-11T23:56:28.185Z,10.48
2019-05-11T23:58:58.984Z,10.47
